Tiempo atmosférico en la estación meteorológica de Los Arcos, Navarra (470 m.)



Fecha
DESCASC
Temp. máxima en grados centígrados (hora)
DESCASC
Temp. mínima en grados centígrados (hora)
DESCASC
Temp. media en grados centígrados
DESCASC
Racha de viento máxima en m/sg (hora)
DESCASC
Velocidad máxima media en intervalos de 10 minutos(hora)
DESCASC
Precipitaciones diarias en mm
DESCASC
Precipitaciones de 00:00 a 06:00 en mm
DESCASC
Precipitaciones de 06:00 a 12:00 en mm
DESCASC
Precipitaciones de 12:00 a 18:00 en mm
DESCASC
Precipitaciones de 18:00 a 24:00 en mm
DESCASC
13-06-2019 27.9 (17:40) 7.7 (04:10) 17.8 14.17 (16:10) 7.78 (14:10) 0 0 0 0 0
12-06-2019 22.6 (18:40) 4.6 (06:50) 13.6 7.5 (22:20) 3.89 (20:50) 0 0 0 0 0
11-06-2019 17.4 (16:30) 7.8 (23:50) 12.6 11.39 (19:00) 6.67 (17:40) 1.6 1.6 0 0 0
10-06-2019 20.4 (17:00) 10.7 (22:20) 15.5 10.83 (17:50) 5.83 (17:50) 0.4 0 0 0 0.4
09-06-2019 27.1 (15:40) 13.4 (00:00) 20.3 12.22 (17:40) 6.67 (17:40) 1 1 0 0 0
08-06-2019 25.5 (17:40) 5.9 (00:00) 15.7 10 (15:40) 6.11 (15:00) 0.8 0 0 0 0.8
07-06-2019 22.1 (17:30) 8.7 (00:00) 15.4 14.72 (03:50) 7.22 (04:00) 0 0 0 0 0
06-06-2019 26.1 (18:50) 7.7 (00:00) 16.9 14.72 (16:40) 8.89 (16:40) 0 0 0 0 0
05-06-2019 18 (15:40) 9.9 (00:00) 13.9 10 (09:50) 5.28 (09:40) 10.8 6.6 3.4 0.8 0
04-06-2019 31.2 (16:00) 12.4 (00:00) 21.8 11.39 (21:20) 5.83 (19:50) 0.8 0 0 0.8 0
03-06-2019 31 (18:00) 14.7 (00:00) 22.8 7.78 (14:00) 4.17 (14:00) 0 0 0 0 0
02-06-2019 32.7 (17:30) 16 (00:00) 24.4 7.78 (23:20) 4.17 (21:50) 0 0 0 0 0
01-06-2019 31.4 (18:00) 14.4 (00:00) 22.9 8.06 (12:50) 3.89 (11:30) 0 0 0 0 0
31-05-2019 29.7 (18:00) 10.3 (00:00) 20 6.11 (16:40) 4.72 (03:10) 0 0 0 0 0
30-05-2019 28.7 (16:40) 8 (00:00) 18.4 7.78 (12:40) 4.17 (05:10) 0 0 0 0 0
29-05-2019 19.3 (17:10) 9.7 (00:00) 14.5 9.72 (16:00) 4.72 (17:40) 0 0 0 0 0
28-05-2019 18.1 (15:00) 9.6 (00:00) 13.9 12.22 (15:50) 6.67 (16:40) 0 0 0 0 0
27-05-2019 20.2 (18:20) 10.2 (00:00) 15.2 13.06 (19:50) 7.5 (20:00) 0 0 0 0 0
26-05-2019 18.4 (15:50) 10.9 (00:00) 14.6 7.78 (14:50) 4.44 (15:40) 0 0 0 0 0
25-05-2019 20 (15:00) 11.3 (00:00) 15.7 10.56 (14:50) 6.11 (15:30) 0 0 0 0 0
24-05-2019 19.2 (15:20) 11.1 (00:00) 15.2 11.67 (18:30) 6.67 (14:00) 15.4 15 0.4 0 0
23-05-2019 24.7 (15:20) 9.5 (00:00) 17.1 10.56 (22:10) 5.28 (22:50) 4.6 0 0 0.2 4.4
22-05-2019 26.6 (17:40) 6.7 (00:00) 16.7 5.83 (17:30) 3.06 (02:30) 0 0 0 0 0
21-05-2019 22.9 (16:00) 4.6 (06:50) 13.7 8.06 (16:10) 4.17 (17:40) 0 0 0 0 0
20-05-2019 20 (16:30) 4.1 (07:10) 12 7.5 (21:10) 4.17 (18:20) 0 0 0 0 0
19-05-2019 14.8 (16:00) 8.4 (00:00) 11.6 13.06 (12:10) 6.11 (15:50) 0 0 0 0 0
18-05-2019 15.9 (16:10) 4.3 (00:00) 10.1 12.78 (14:30) 6.94 (15:30) 0.4 0 0 0 0.4
17-05-2019 12.4 (13:00) 7.8 (00:00) 10.1 13.89 (01:40) 7.78 (02:00) 19.6 19.2 0 0.2 0.2

Gráficas

Temp. máximas Temp. mínimas Temp. medias Precipitaciones Rachas de viento máximas Velocidades máximas media en intervalos de 10 minutos

Datos horarios

Fecha y hora oficial Temperatura (ºC) Velocidad del viento (km/h) Dirección del viento Racha (km/h) Dirección de racha Precipitación (mm) Presión (hPa) Tendencia (hPa) Humedad (%)
2019-06-15 23:00:00 14.4 7 Norte 21 Norte 0 -- -- 59
2019-06-15 22:00:00 15.7 4 Nordeste 24 Norte 0 -- -- 56
2019-06-15 21:00:00 17.9 10 Nordeste 30 Norte 0 -- -- 50
2019-06-15 20:00:00 20.8 16 Norte 32 Norte 0 -- -- 43
2019-06-15 19:00:00 22.2 14 Norte 29 Nordeste 0 -- -- 41
2019-06-15 18:00:00 23.4 13 Nordeste 26 Nordeste 0 -- -- 39
2019-06-15 17:00:00 25 12 Noroeste 26 Noroeste 0 -- -- 32
2019-06-15 16:00:00 23.4 8 Noroeste 23 Norte 0 -- -- 35
2019-06-15 15:00:00 23.6 11 Noroeste 25 Noroeste 0 -- -- 35
2019-06-15 14:00:00 23.1 10 Noroeste 36 Noroeste 0 -- -- 36
2019-06-15 13:00:00 21.7 9 Noroeste 25 Norte 0 -- -- 38
2019-06-15 12:00:00 20.8 6 Nordeste 20 Nordeste 0 -- -- 40
2019-06-15 11:00:00 19.1 12 Norte 28 Noroeste 0 -- -- 47
2019-06-15 10:00:00 16.9 8 Noroeste 18 Noroeste 0 -- -- 52
2019-06-15 09:00:00 14.9 4 Noroeste 13 Noroeste 0 -- -- 63
2019-06-15 08:00:00 12.2 10 Noroeste 13 Noroeste 0 -- -- 75
2019-06-15 07:00:00 10.3 7 Oeste 15 Noroeste 0 -- -- 80
2019-06-15 06:00:00 12.3 6 Oeste 17 Noroeste 0 -- -- 76
2019-06-15 05:00:00 11.6 8 Oeste 13 Noroeste 0 -- -- 82
2019-06-15 04:00:00 11.2 8 Noroeste 19 Noroeste 0 -- -- 83
2019-06-15 03:00:00 12.6 8 Noroeste 29 Noroeste 0 -- -- 77
2019-06-15 02:00:00 13.2 13 Noroeste 30 Noroeste 0 -- -- 76
2019-06-15 01:00:00 13.9 16 Noroeste 35 Noroeste 0 -- -- 76
2019-06-15 00:00:00 14.4 17 Noroeste 29 Noroeste 0 -- -- 76
2019-06-14 23:00:00 14.8 11 Norte 30 Norte 0 -- -- 75
2019-06-14 22:00:00 15.3 11 Noroeste 36 Noroeste 0 -- -- 73
2019-06-14 21:00:00 16.6 19 Norte 37 Norte 0 -- -- 70
2019-06-14 20:00:00 21.2 20 Norte 32 Noroeste 0 -- -- 57
2019-06-14 19:00:00 23 17 Norte 28 Norte 0 -- -- 53
2019-06-14 18:00:00 25.3 8 Este 26 Este 0 -- -- 42
2019-06-14 17:00:00 26.3 11 Este 26 Este 0 -- -- 35
2019-06-14 16:00:00 26.1 13 Este 28 Este 0 -- -- 37
2019-06-14 15:00:00 26.5 10 Sudeste 23 Sudeste 0 -- -- 37
2019-06-14 14:00:00 24.7 5 Sudeste 18 Sudeste 0 -- -- 41
2019-06-14 13:00:00 22.9 7 Sudeste 15 Este 0 -- -- 44
2019-06-14 12:00:00 21.1 6 Sudeste 13 Este 0 -- -- 46
2019-06-14 11:00:00 19.5 5 Sur 10 Sudeste 0 -- -- 52
2019-06-14 10:00:00 17.6 3 Noroeste 8 Nordeste 0 -- -- 59
2019-06-14 09:00:00 15.2 3 Noroeste 9 Noroeste 0 -- -- 69
2019-06-14 08:00:00 11.2 6 Noroeste 14 Noroeste 0 -- -- 87
2019-06-14 07:00:00 9.4 12 Noroeste 16 Noroeste 0 -- -- 92
2019-06-14 06:00:00 9.6 6 Noroeste 11 Noroeste 0 -- -- 90
2019-06-14 05:00:00 10.2 8 Noroeste 14 Noroeste 0 -- -- 87
2019-06-14 04:00:00 11 11 Noroeste 14 Noroeste -- -- -- 86
2019-06-14 03:00:00 11.3 9 Noroeste 14 Noroeste 0 -- -- 85
2019-06-14 02:00:00 11.8 9 Noroeste 12 Norte 0 -- -- 83
2019-06-14 01:00:00 12.7 5 Noroeste 11 Noroeste 0 -- -- 78
2019-06-14 00:00:00 14.2 6 Norte 26 Norte 0 -- -- 73
2019-06-13 23:00:00 15.5 12 Norte 36 Nordeste 0 -- -- 70
2019-06-13 22:00:00 19.2 17 Norte 44 Este 0 -- -- 59
2019-06-13 21:00:00 24.3 25 Sudeste 45 Sudeste 0 -- -- 42
2019-06-13 20:00:00 25.8 26 Sudeste 45 Sudeste 0 -- -- 41
2019-06-13 19:00:00 26.9 28 Sudeste 48 Sudeste 0 -- -- 39
2019-06-13 18:00:00 27.5 23 Sudeste 45 Sudeste 0 -- -- 38
2019-06-13 17:00:00 27.8 24 Sudeste 51 Sudeste 0 -- -- 37
2019-06-13 16:00:00 26.9 27 Sudeste 49 Sudeste 0 -- -- 37
2019-06-13 15:00:00 26 26 Sudeste 46 Sudeste 0 -- -- 39
2019-06-13 14:00:00 24.2 27 Sudeste 43 Sudeste 0 -- -- 43
2019-06-13 13:00:00 22.2 26 Sudeste 45 Este 0 -- -- 46
2019-06-13 12:00:00 20.2 25 Este 40 Sudeste 0 -- -- 48
2019-06-13 11:00:00 18.1 26 Sudeste 40 Sudeste 0 -- -- 51
2019-06-13 10:00:00 16.3 19 Sudeste 37 Sudeste 0 -- -- 53
2019-06-13 09:00:00 14.1 15 Este 23 Este 0 -- -- 59
2019-06-13 08:00:00 11.6 14 Este 21 Este 0 -- -- 67
2019-06-13 07:00:00 10.7 5 Sudeste 18 Este 0 -- -- 72
2019-06-13 06:00:00 11 10 Este 21 Este 0 -- -- 70
2019-06-13 05:00:00 9.4 12 Este 17 Este 0 -- -- 78
2019-06-13 04:00:00 7.8 9 Norte 12 Norte 0 -- -- 84
2019-06-13 03:00:00 9 7 Norte 16 Norte 0 -- -- 80
2019-06-13 02:00:00 9.8 8 Norte 15 Norte 0 -- -- 78
2019-06-13 01:00:00 10.6 9 Noroeste 18 Noroeste 0 -- -- 75
2019-06-13 00:00:00 11.6 10 Norte 26 Norte 0 -- -- 70
2019-06-12 23:00:00 12.5 12 Norte 27 Norte 0 -- -- 68
2019-06-12 22:00:00 14.3 13 Norte 25 Norte 0 -- -- 63
2019-06-12 21:00:00 17.2 12 Nordeste 27 Nordeste 0 -- -- 53
2019-06-12 20:00:00 21.4 10 Este 25 Este 0 -- -- 33
2019-06-12 19:00:00 22.6 6 Sur 15 Sudoeste 0 -- -- 30
2019-06-12 18:00:00 22.4 6 Noroeste 19 Sudoeste 0 -- -- 31
2019-06-12 17:00:00 21.9 6 Sudoeste 18 Sudeste 0 -- -- 31
2019-06-12 16:00:00 21.8 8 Sudeste 23 Este 0 -- -- 33
2019-06-12 15:00:00 21.3 8 Sudoeste 22 Sudeste 0 -- -- 30
2019-06-12 14:00:00 20.2 8 Sur 19 Sudoeste 0 -- -- 29
2019-06-12 13:00:00 18.3 10 Oeste 21 Oeste 0 -- -- 34
2019-06-12 12:00:00 17.4 7 Sudoeste 16 Sur 0 -- -- 44
2019-06-12 11:00:00 15.3 6 Sudoeste 13 Sudoeste 0 -- -- 51
2019-06-12 10:00:00 12.8 6 Este 13 Sudeste 0 -- -- 63
2019-06-12 09:00:00 10.6 8 Este 14 Sudeste 0 -- -- 70
2019-06-12 08:00:00 7.9 10 Norte 14 Norte 0 -- -- 81
2019-06-12 07:00:00 4.7 4 Noroeste 7 Norte 0 -- -- 90
2019-06-12 06:00:00 5.8 0 Calma 8 Este 0 -- -- 88
2019-06-12 05:00:00 6.2 8 Noroeste 15 Noroeste 0 -- -- 88
2019-06-12 04:00:00 5.4 8 Norte 13 Noroeste 0 -- -- 90
2019-06-12 03:00:00 5.8 2 Noroeste 13 Norte 0 -- -- 86
2019-06-12 02:00:00 6.6 8 Noroeste 12 Norte 0 -- -- 85
2019-06-12 01:00:00 7.5 5 Oeste 11 Norte 0 -- -- 82
2019-06-12 00:00:00 7.9 5 Norte 12 Noroeste 0 -- -- 79
2019-06-11 23:00:00 8.8 6 Norte 10 Noroeste 0 -- -- 74
2019-06-11 22:00:00 10.8 10 Noroeste 30 Noroeste 0 -- -- 68
2019-06-11 21:00:00 12.3 11 Noroeste 34 Noroeste 0 -- -- 64
2019-06-11 20:00:00 13.8 18 Noroeste 40 Noroeste 0 -- -- 57
2019-06-11 19:00:00 15.7 21 Noroeste 41 Noroeste 0 -- -- 53
2019-06-11 18:00:00 14.8 18 Noroeste 37 Noroeste 0 -- -- 56
2019-06-11 17:00:00 17.3 16 Noroeste 36 Noroeste 0 -- -- 42
2019-06-11 16:00:00 15.6 16 Noroeste 37 Noroeste 0 -- -- 48
2019-06-11 15:00:00 16.7 16 Norte 33 Noroeste 0 -- -- 50
2019-06-11 14:00:00 16.6 17 Noroeste 36 Noroeste 0 -- -- 49
2019-06-11 13:00:00 15.8 14 Noroeste 31 Noroeste 0 -- -- 50
2019-06-11 12:00:00 13.8 17 Noroeste 33 Noroeste 0 -- -- 57
2019-06-11 11:00:00 14 13 Noroeste 28 Noroeste 0 -- -- 60
2019-06-11 10:00:00 12.9 14 Oeste 30 Noroeste 0 -- -- 68
2019-06-11 09:00:00 11.7 8 Noroeste 17 Noroeste 0 -- -- 78
2019-06-11 08:00:00 9.4 5 Noroeste 9 Noroeste 0 -- -- 91
2019-06-11 07:00:00 9.2 3 Oeste 5 Oeste 0 -- -- 92
2019-06-11 06:00:00 9.1 2 Norte 9 Oeste 0.6 -- -- 92
2019-06-11 05:00:00 9 5 Noroeste 12 Noroeste 0 -- -- 91
2019-06-11 04:00:00 9.1 5 Oeste 14 Oeste 0.2 -- -- 90
2019-06-11 03:00:00 9.3 6 Oeste 11 Oeste 0.6 -- -- 88
2019-06-11 02:00:00 9.9 7 Noroeste 25 Oeste 0.2 -- -- 81
2019-06-11 01:00:00 11.1 13 Noroeste 23 Noroeste 0 -- -- 65
2019-06-11 00:00:00 10.9 11 Noroeste 22 Norte 0 -- -- 74
2019-06-10 23:00:00 10.8 8 Noroeste 21 Noroeste 0.2 -- -- 78
2019-06-10 22:00:00 11.1 12 Noroeste 26 Noroeste 0.2 -- -- 78
2019-06-10 21:00:00 14 9 Noroeste 24 Norte 0 -- -- 55
2019-06-10 20:00:00 15.2 12 Norte 30 Noroeste 0 -- -- 55
2019-06-10 19:00:00 17.3 19 Noroeste 32 Noroeste 0 -- -- 48
2019-06-10 18:00:00 18.4 19 Noroeste 39 Oeste 0 -- -- 44
2019-06-10 17:00:00 20.4 17 Noroeste 36 Noroeste 0 -- -- 39
2019-06-10 16:00:00 20 15 Noroeste 28 Noroeste 0 -- -- 41
2019-06-10 15:00:00 19.1 13 Norte 30 Noroeste 0 -- -- 44
2019-06-10 14:00:00 17.9 11 Norte 28 Noroeste 0 -- -- 50
2019-06-10 13:00:00 15.9 9 Noroeste 23 Noroeste 0 -- -- 54
2019-06-10 12:00:00 14.9 7 Noroeste 21 Noroeste 0 -- -- 58
2019-06-10 11:00:00 13.2 13 Noroeste 21 Noroeste 0 -- -- 67
2019-06-10 10:00:00 13.1 13 Noroeste 25 Noroeste 0 -- -- 66
2019-06-10 09:00:00 12.4 9 Noroeste 23 Noroeste 0 -- -- 67
2019-06-10 08:00:00 11.6 12 Noroeste 22 Noroeste 0 -- -- 71
2019-06-10 07:00:00 11.6 10 Noroeste 17 Noroeste 0 -- -- 75
2019-06-10 06:00:00 11.8 9 Noroeste 17 Noroeste 0 -- -- 76
2019-06-10 05:00:00 11.6 7 Noroeste 18 Noroeste 0 -- -- 76
2019-06-10 04:00:00 11.8 10 Noroeste 23 Noroeste 0 -- -- 76
2019-06-10 03:00:00 11.8 8 Noroeste 22 Noroeste 0 -- -- 78
2019-06-10 02:00:00 12.3 13 Noroeste 30 Noroeste 0 -- -- 76
2019-06-10 01:00:00 13 17 Noroeste 30 Noroeste 0 -- -- 74
2019-06-10 00:00:00 13.4 20 Noroeste 34 Noroeste 0 -- -- 75
2019-06-09 23:00:00 14.2 15 Noroeste 33 Norte 0 -- -- 72
2019-06-09 22:00:00 14.9 18 Noroeste 35 Norte 0 -- -- 71
2019-06-09 21:00:00 16.1 15 Noroeste 40 Noroeste 0 -- -- 67
2019-06-09 20:00:00 17.6 22 Norte 42 Norte 0 -- -- 63
2019-06-09 19:00:00 19.6 23 Norte 42 Nordeste 0 -- -- 59
2019-06-09 18:00:00 23.1 20 Norte 44 Oeste 0 -- -- 51
2019-06-09 17:00:00 26 23 Noroeste 39 Noroeste 0 -- -- 44
2019-06-09 16:00:00 25.6 15 Norte 26 Nordeste 0 -- -- 45
2019-06-09 15:00:00 25.9 9 Oeste 18 Sudoeste 0 -- -- 35
2019-06-09 14:00:00 24.8 5 Noroeste 17 Sudeste 0 -- -- 37
2019-06-09 13:00:00 23.4 7 Sudeste 18 Sudeste 0 -- -- 40
2019-06-09 12:00:00 21.9 6 Este 21 Sudeste 0 -- -- 45
2019-06-09 11:00:00 20 4 Sudoeste 13 Sur 0 -- -- 52
2019-06-09 10:00:00 18.3 5 Sudoeste 12 Oeste 0 -- -- 58
2019-06-09 09:00:00 17.5 6 Este 10 Este 0 -- -- 52
2019-06-09 08:00:00 14.9 0 Calma 16 Este 0 -- -- 66
2019-06-09 07:00:00 13.4 8 Nordeste 14 Este 0 -- -- 65
2019-06-09 06:00:00 14.1 10 Este 15 Este 0 -- -- 64
2019-06-09 05:00:00 14.4 10 Este 17 Este 0 -- -- 63
2019-06-09 04:00:00 15.1 14 Este 26 Este 0.2 -- -- 61
2019-06-09 03:00:00 15.4 11 Este 22 Este 0 -- -- 62
2019-06-09 02:00:00 15.4 14 Este 27 Este 0.8 -- -- 67
2019-06-09 01:00:00 16.8 9 Este 27 Este 0 -- -- 61
2019-06-09 00:00:00 16.9 12 Este 20 Nordeste 0.6 -- -- 71
2019-06-08 23:00:00 17.3 12 Nordeste 22 Nordeste 0.2 -- -- 66
2019-06-08 22:00:00 20 13 Nordeste 24 Nordeste 0 -- -- 51
2019-06-08 21:00:00 22.9 16 Este 27 Sudeste 0 -- -- 42
2019-06-08 20:00:00 24.5 18 Sudeste 33 Sudeste 0 -- -- 35
2019-06-08 19:00:00 25.5 17 Sudeste 30 Sudeste 0 -- -- 32
2019-06-08 18:00:00 25 18 Sudeste 32 Sudeste 0 -- -- 32
2019-06-08 17:00:00 25.1 17 Sudeste 32 Este 0 -- -- 31
2019-06-08 16:00:00 24.5 15 Sudeste 36 Sudeste 0 -- -- 31
2019-06-08 15:00:00 23.3 22 Sudeste 36 Este 0 -- -- 33
2019-06-08 14:00:00 23 15 Sudeste 36 Este 0 -- -- 33
2019-06-08 13:00:00 21.4 16 Este 27 Sudeste 0 -- -- 36
2019-06-08 12:00:00 19.2 5 Este 18 Sudeste 0 -- -- 43
2019-06-08 11:00:00 17.2 4 Sur 21 Este 0 -- -- 50
2019-06-08 10:00:00 14.6 4 Sudoeste 10 Sudoeste 0 -- -- 58
2019-06-08 09:00:00 11.8 3 Sudoeste 11 Norte 0 -- -- 70
2019-06-08 08:00:00 8.8 8 Noroeste 13 Norte 0 -- -- 81
2019-06-08 07:00:00 6 8 Noroeste 13 Noroeste 0 -- -- 88
2019-06-08 06:00:00 6.4 10 Norte 14 Noroeste 0 -- -- 88
2019-06-08 05:00:00 6.6 4 Nordeste 8 Norte 0 -- -- 87
2019-06-08 04:00:00 7.4 4 Oeste 13 Oeste -- -- -- 83
2019-06-08 03:00:00 7.8 6 Oeste 13 Noroeste 0 -- -- 83
2019-06-08 02:00:00 9 5 Oeste 13 Norte 0 -- -- 80
2019-06-08 01:00:00 9.6 5 Norte 15 Norte 0 -- -- 77
2019-06-08 00:00:00 10.6 6 Norte 25 Norte 0 -- -- 72
2019-06-07 23:00:00 11.7 14 Norte 24 Norte 0 -- -- 68
2019-06-07 22:00:00 12.9 13 Nordeste 27 Nordeste 0 -- -- 63
2019-06-07 21:00:00 15.8 10 Nordeste 21 Norte 0 -- -- 52
2019-06-07 20:00:00 18.7 9 Nordeste 28 Noroeste 0 -- -- 45
2019-06-07 19:00:00 21.4 15 Noroeste 36 Oeste 0 -- -- 31
2019-06-07 18:00:00 21.7 17 Oeste 31 Oeste 0 -- -- 25
2019-06-07 17:00:00 21.3 18 Oeste 35 Oeste 0 -- -- 26
2019-06-07 16:00:00 20.8 18 Oeste 40 Oeste 0 -- -- 31
2019-06-07 15:00:00 20.6 21 Oeste 36 Noroeste 0 -- -- 31
2019-06-07 14:00:00 19.3 21 Oeste 41 Oeste 0 -- -- 33
2019-06-07 13:00:00 18.5 21 Oeste 43 Noroeste 0 -- -- 38
2019-06-07 12:00:00 17.4 23 Oeste 44 Oeste 0 -- -- 41
2019-06-07 11:00:00 16.4 19 Oeste 45 Noroeste 0 -- -- 46
2019-06-07 10:00:00 15.1 14 Oeste 29 Oeste 0 -- -- 50
2019-06-07 09:00:00 13.2 17 Oeste 34 Oeste 0 -- -- 57
2019-06-07 08:00:00 11.8 12 Oeste 27 Oeste 0 -- -- 60
2019-06-07 07:00:00 9.3 8 Oeste 21 Oeste 0 -- -- 70
2019-06-07 06:00:00 9.8 7 Oeste 18 Oeste 0 -- -- 76
2019-06-07 05:00:00 10.8 11 Oeste 42 Oeste 0 -- -- 76
2019-06-07 04:00:00 12.4 26 Oeste 53 Noroeste 0 -- -- 58
2019-06-07 03:00:00 13.6 17 Oeste 31 Oeste 0 -- -- 65
2019-06-07 02:00:00 16.7 5 Oeste 31 Sudeste 0 -- -- 61
2019-06-07 01:00:00 17.2 15 Sudeste 35 Sudeste 0 -- -- 62
2019-06-07 00:00:00 18.5 21 Sudeste 45 Sudeste 0 -- -- 54
2019-06-06 23:00:00 19.2 19 Sudeste 33 Sudeste 0 -- -- 50
2019-06-06 22:00:00 21.5 8 Sur 31 Sudeste 0 -- -- 31
2019-06-06 21:00:00 23.2 14 Sur 34 Sur 0 -- -- 26
2019-06-06 20:00:00 24.6 16 Sur 37 Sur 0 -- -- 27
2019-06-06 19:00:00 26 18 Sur 40 Sur 0 -- -- 27
2019-06-06 18:00:00 24.6 17 Sur 45 Sudeste 0 -- -- 29
2019-06-06 17:00:00 24.4 30 Sudeste 53 Sudeste 0 -- -- 37
2019-06-06 16:00:00 23.4 28 Sudeste 50 Sudeste 0 -- -- 39
2019-06-06 15:00:00 21.7 28 Sudeste 45 Sudeste 0 -- -- 43
2019-06-06 14:00:00 20.2 26 Sudeste 42 Sudeste 0 -- -- 46
2019-06-06 13:00:00 19.1 20 Sudeste 33 Sudeste 0 -- -- 50
2019-06-06 12:00:00 17.5 17 Este 31 Este 0 -- -- 60
2019-06-06 11:00:00 15.7 9 Sudeste 20 Sudeste 0 -- -- 56
2019-06-06 10:00:00 13.5 6 Este 12 Sudeste 0 -- -- 63
2019-06-06 09:00:00 11.1 2 Sur 4 Sudoeste 0 -- -- 79
2019-06-06 08:00:00 9.2 0 Calma 5 Norte 0 -- -- 88
2019-06-06 07:00:00 8.4 0 Calma 8 Norte 0 -- -- 88
2019-06-06 06:00:00 7.9 4 Norte 14 Noroeste 0 -- -- 89
2019-06-06 05:00:00 7.9 8 Norte 9 Norte 0 -- -- 87
2019-06-06 04:00:00 8.7 0 Calma 7 Norte 0 -- -- 87
2019-06-06 03:00:00 8.9 7 Norte 10 Noroeste 0 -- -- 84
2019-06-06 02:00:00 8.9 6 Noroeste 9 Noroeste 0 -- -- 82
2019-06-06 01:00:00 10.2 3 Nordeste 10 Norte 0 -- -- 75
2019-06-06 00:00:00 11.8 6 Noroeste 17 Norte 0 -- -- 68
2019-06-05 23:00:00 12.1 6 Norte 19 Nordeste 0 -- -- 66
2019-06-05 22:00:00 12.6 7 Norte 17 Noroeste 0 -- -- 66
2019-06-05 21:00:00 13.7 10 Noroeste 21 Noroeste 0 -- -- 60
2019-06-05 20:00:00 15 14 Noroeste 25 Oeste 0 -- -- 56
2019-06-05 19:00:00 17 11 Noroeste 27 Noroeste 0 -- -- 55
2019-06-05 18:00:00 16.4 10 Noroeste 28 Noroeste 0 -- -- 57
2019-06-05 17:00:00 17.3 14 Noroeste 31 Noroeste 0 -- -- 55
2019-06-05 16:00:00 17 17 Noroeste 35 Noroeste 0 -- -- 55
2019-06-05 15:00:00 16.6 14 Noroeste 32 Noroeste 0 -- -- 58
2019-06-05 14:00:00 14.2 14 Noroeste 26 Noroeste 0 -- -- 73
2019-06-05 13:00:00 12.3 13 Noroeste 22 Noroeste 0.8 -- -- 84
2019-06-05 12:00:00 11.8 8 Oeste 27 Oeste 0.4 -- -- 83
2019-06-05 11:00:00 12.4 8 Noroeste 35 Noroeste 0 -- -- 75
2019-06-05 10:00:00 10.7 15 Noroeste 36 Noroeste 0 -- -- 82
2019-06-05 09:00:00 10.1 14 Noroeste 35 Noroeste 2 -- -- 88
2019-06-05 08:00:00 10.7 7 Oeste 26 Noroeste 0.8 -- -- 89
2019-06-05 07:00:00 11 9 Oeste 21 Sudoeste 0.2 -- -- 90
2019-06-05 06:00:00 10.9 6 Oeste 16 Oeste 2.4 -- -- 93
2019-06-05 05:00:00 11.1 5 Noroeste 12 Norte 3.2 -- -- 90
2019-06-05 04:00:00 11.8 6 Noroeste 15 Noroeste 0.8 -- -- 84
2019-06-05 03:00:00 12.9 6 Noroeste 19 Norte 0.2 -- -- 76
2019-06-05 02:00:00 13.3 7 Noroeste 23 Noroeste 0 -- -- 73
2019-06-05 01:00:00 13.4 12 Noroeste 33 Noroeste 0 -- -- 69
2019-06-05 00:00:00 13 11 Noroeste 32 Noroeste 0 -- -- 69
2019-06-04 23:00:00 12.6 14 Noroeste 36 Norte 0 -- -- 70
2019-06-04 22:00:00 13.5 14 Norte 41 Norte 0 -- -- 75
2019-06-04 21:00:00 15.3 19 Norte 40 Norte 0 -- -- 75
2019-06-04 20:00:00 17.1 19 Norte 40 Norte 0 -- -- 73
2019-06-04 19:00:00 18.5 17 Norte 32 Norte 0 -- -- 75
2019-06-04 18:00:00 22.6 11 Noroeste 28 Noroeste 0.8 -- -- 66
2019-06-04 17:00:00 29.7 15 Noroeste 30 Noroeste 0 -- -- 40
2019-06-04 16:00:00 31.2 11 Noroeste 20 Noroeste 0 -- -- 31
2019-06-04 15:00:00 29.7 9 Oeste 18 Oeste 0 -- -- 30
2019-06-04 14:00:00 28 4 Sudoeste 13 Sudeste 0 -- -- 34
2019-06-04 13:00:00 26.7 9 Sudeste 18 Este 0 -- -- 37
2019-06-04 12:00:00 25 6 Sudeste 26 Sudeste 0 -- -- 39
2019-06-04 11:00:00 23.2 10 Sudeste 28 Sudeste 0 -- -- 44
2019-06-04 10:00:00 20.4 15 Sudeste 27 Este 0 -- -- 49
2019-06-04 09:00:00 18 14 Este 25 Este 0 -- -- 54
2019-06-04 08:00:00 15.6 6 Nordeste 11 Este 0 -- -- 62
2019-06-04 07:00:00 15 8 Este 15 Este 0 -- -- 59
2019-06-04 06:00:00 16.1 8 Nordeste 16 Este 0 -- -- 56
2019-06-04 05:00:00 16.8 9 Este 24 Este 0 -- -- 55
2019-06-04 04:00:00 17.6 17 Este 25 Este 0 -- -- 54
2019-06-04 03:00:00 18.7 15 Este 28 Este 0 -- -- 53
2019-06-04 02:00:00 20.2 13 Este 21 Este 0 -- -- 52
2019-06-04 01:00:00 21.4 8 Este 20 Este 0 -- -- 48
2019-06-04 00:00:00 22.5 12 Este 20 Este 0 -- -- 47
2019-06-03 23:00:00 24 12 Este 21 Este 0 -- -- 44
2019-06-03 22:00:00 23.8 9 Nordeste 13 Nordeste 0 -- -- 47
2019-06-03 21:00:00 27.5 2 Sudeste 17 Sudeste 0 -- -- 38
2019-06-03 20:00:00 29.5 9 Sudeste 17 Sudeste 0 -- -- 33
2019-06-03 19:00:00 30.6 11 Este 18 Este 0 -- -- 32
2019-06-03 18:00:00 31 8 Este 17 Sudeste 0 -- -- 29
2019-06-03 17:00:00 30.8 9 Sudeste 24 Sudeste 0 -- -- 29
2019-06-03 16:00:00 29.5 6 Este 25 Este 0 -- -- 31
2019-06-03 15:00:00 28.5 10 Este 23 Este 0 -- -- 32
2019-06-03 14:00:00 27.5 15 Este 28 Este 0 -- -- 33
2019-06-03 13:00:00 26.3 10 Sudeste 21 Nordeste 0 -- -- 36
2019-06-03 12:00:00 24.7 8 Este 17 Este 0 -- -- 40
2019-06-03 11:00:00 22.1 9 Sudeste 15 Este 0 -- -- 50
2019-06-03 10:00:00 20.8 6 Sudeste 16 Este 0 -- -- 51
2019-06-03 09:00:00 18.4 4 Norte 6 Norte 0 -- -- 64
2019-06-03 08:00:00 15.6 0 Calma 5 Sudeste 0 -- -- 77
2019-06-03 07:00:00 14.9 3 Noroeste 13 Norte 0 -- -- 73
2019-06-03 06:00:00 15.7 10 Noroeste 13 Noroeste 0 -- -- 73
2019-06-03 05:00:00 16 10 Norte 12 Norte 0 -- -- 71
2019-06-03 04:00:00 16.8 5 Noroeste 15 Noroeste 0 -- -- 69
2019-06-03 03:00:00 17.5 12 Norte 18 Norte 0 -- -- 66
2019-06-03 02:00:00 18.2 10 Norte 14 Norte 0 -- -- 64
2019-06-03 01:00:00 19.4 9 Noroeste 14 Noroeste 0 -- -- 60
2019-06-03 00:00:00 20.8 8 Noroeste 28 Norte 0 -- -- 60
2019-06-02 23:00:00 22.2 14 Norte 26 Norte 0 -- -- 58
2019-06-02 22:00:00 24.2 14 Norte 25 Norte 0 -- -- 54
2019-06-02 21:00:00 27.3 7 Norte 11 Este 0 -- -- 42
2019-06-02 20:00:00 29.8 8 Este 18 Sudeste 0 -- -- 35
2019-06-02 19:00:00 31.2 9 Sudeste 16 Este 0 -- -- 32
2019-06-02 18:00:00 32.1 5 Este 21 Sudeste 0 -- -- 29
2019-06-02 17:00:00 32.3 9 Este 19 Este 0 -- -- 28
2019-06-02 16:00:00 31.5 8 Este 22 Este 0 -- -- 30
2019-06-02 15:00:00 30.5 9 Sudeste 19 Este 0 -- -- 32
2019-06-02 14:00:00 28.8 7 Este 22 Sudeste 0 -- -- 34
2019-06-02 13:00:00 27.6 9 Sudeste 20 Este 0 -- -- 34
2019-06-02 12:00:00 25.6 8 Sudeste 21 Este 0 -- -- 39
2019-06-02 11:00:00 23.6 8 Este 20 Sudeste 0 -- -- 43
2019-06-02 10:00:00 21.7 10 Este 21 Este 0 -- -- 46
2019-06-02 09:00:00 20.1 14 Este 21 Este 0 -- -- 48
2019-06-02 08:00:00 18.6 8 Este 18 Este 0 -- -- 53
2019-06-02 07:00:00 16.3 10 Este 15 Este 0 -- -- 59
2019-06-02 06:00:00 17 11 Este 21 Este 0 -- -- 58
2019-06-02 05:00:00 17.1 9 Este 16 Este 0 -- -- 60
2019-06-02 04:00:00 19.1 12 Este 20 Este 0 -- -- 53
2019-06-02 03:00:00 19.4 12 Este 18 Nordeste 0 -- -- 51
2019-06-02 02:00:00 20.8 12 Este 19 Este 0 -- -- 44
2019-06-02 01:00:00 19.7 6 Nordeste 9 Nordeste 0 -- -- 45
2019-06-02 00:00:00 20.6 8 Nordeste 10 Nordeste 0 -- -- 42
2019-06-01 23:00:00 22.7 5 Nordeste 16 Nordeste 0 -- -- 38
2019-06-01 22:00:00 24.8 11 Nordeste 17 Este 0 -- -- 35
2019-06-01 21:00:00 26.6 10 Este 17 Este 0 -- -- 34
2019-06-01 20:00:00 29.9 12 Este 19 Este 0 -- -- 27
2019-06-01 19:00:00 31.2 11 Este 18 Este 0 -- -- 26
2019-06-01 18:00:00 31.4 6 Sudeste 21 Este 0 -- -- 27
2019-06-01 17:00:00 31 8 Sudeste 19 Sudeste 0 -- -- 30
2019-06-01 16:00:00 30.2 10 Este 25 Sudeste 0 -- -- 31
2019-06-01 15:00:00 29.6 8 Sudeste 22 Sudeste 0 -- -- 33
2019-06-01 14:00:00 27.9 11 Este 24 Sudeste 0 -- -- 39
2019-06-01 13:00:00 26.2 10 Este 29 Este 0 -- -- 41
2019-06-01 12:00:00 24.4 13 Este 24 Sudeste 0 -- -- 45
2019-06-01 11:00:00 22.5 11 Este 19 Sudeste 0 -- -- 50
2019-06-01 10:00:00 20.8 10 Este 18 Este 0 -- -- 55
2019-06-01 09:00:00 19.1 9 Este 13 Este 0 -- -- 60
2019-06-01 08:00:00 16.9 10 Este 16 Este 0 -- -- 68
2019-06-01 07:00:00 15.2 8 Este 15 Nordeste 0 -- -- 73
2019-06-01 06:00:00 15.1 8 Nordeste 12 Nordeste 0 -- -- 74
2019-06-01 05:00:00 16.5 9 Este 18 Este 0 -- -- 69
2019-06-01 04:00:00 16.6 7 Este 19 Este -- -- -- 69
2019-06-01 03:00:00 15.3 0 Calma 5 Este 0 -- -- 81
2019-06-01 02:00:00 16.2 2 Norte 15 Noroeste 0 -- -- 79
2019-06-01 01:00:00 17.1 5 Norte 11 Nordeste 0 -- -- 76
2019-06-01 00:00:00 18.4 5 Norte 8 Norte 0 -- -- 70
2019-05-31 23:00:00 19.5 4 Nordeste 9 Norte 0 -- -- 65
2019-05-31 22:00:00 21.7 6 Nordeste 10 Este 0 -- -- 55
2019-05-31 21:00:00 25.3 5 Este 14 Este 0 -- -- 38
2019-05-31 20:00:00 28.3 10 Sudeste 20 Este 0 -- -- 31
2019-05-31 19:00:00 29.4 9 Sudeste 20 Este 0 -- -- 27
2019-05-31 18:00:00 29.7 7 Sudeste 19 Este 0 -- -- 25
2019-05-31 17:00:00 29.5 8 Este 22 Este 0 -- -- 31
2019-05-31 16:00:00 28.8 8 Este 16 Este 0 -- -- 31
2019-05-31 15:00:00 27.6 7 Sudeste 19 Sur 0 -- -- 34
2019-05-31 14:00:00 26.1 8 Este 15 Sudeste 0 -- -- 39
2019-05-31 13:00:00 25 8 Sudeste 16 Sudeste 0 -- -- 44
2019-05-31 12:00:00 23.4 7 Sudeste 17 Sudeste 0 -- -- 46
2019-05-31 11:00:00 21.8 8 Sudeste 14 Sudeste 0 -- -- 53
2019-05-31 10:00:00 19.5 5 Sudeste 10 Sudeste 0 -- -- 59
2019-05-31 09:00:00 17.3 3 Sudeste 8 Sudeste 0 -- -- 66
2019-05-31 08:00:00 13.5 2 Este 13 Norte 0 -- -- 75
2019-05-31 07:00:00 10.7 3 Norte 14 Norte 0 -- -- 83
2019-05-31 06:00:00 10.7 3 Nordeste 16 Norte 0 -- -- 82
2019-05-31 05:00:00 12 16 Norte 17 Norte 0 -- -- 79
2019-05-31 04:00:00 13.2 9 Norte 20 Noroeste 0 -- -- 74
2019-05-31 03:00:00 13.7 13 Norte 19 Norte 0 -- -- 74
2019-05-31 02:00:00 14.2 13 Norte 16 Noroeste 0 -- -- 73
2019-05-31 01:00:00 14.6 6 Noroeste 14 Noroeste 0 -- -- 72
2019-05-31 00:00:00 16.6 3 Este 17 Norte 0 -- -- 68
2019-05-30 23:00:00 18.1 8 Norte 20 Noroeste 0 -- -- 63
2019-05-30 22:00:00 19.9 10 Norte 21 Norte 0 -- -- 58
2019-05-30 21:00:00 22.7 10 Norte 23 Norte 0 -- -- 45
2019-05-30 20:00:00 25.3 8 Norte 22 Norte 0 -- -- 35
2019-05-30 19:00:00 27.1 13 Norte 26 Norte 0 -- -- 33
2019-05-30 18:00:00 28.4 8 Nordeste 20 Nordeste 0 -- -- 30
2019-05-30 17:00:00 28.7 6 Norte 17 Noroeste 0 -- -- 29
2019-05-30 16:00:00 27.7 6 Norte 20 Nordeste 0 -- -- 31
2019-05-30 15:00:00 27.2 9 Este 22 Este 0 -- -- 30
2019-05-30 14:00:00 26.2 6 Nordeste 22 Nordeste 0 -- -- 36
2019-05-30 13:00:00 24.7 7 Nordeste 28 Norte 0 -- -- 41
2019-05-30 12:00:00 23.6 7 Norte 18 Noroeste 0 -- -- 43
2019-05-30 11:00:00 20.8 3 Nordeste 10 Oeste 0 -- -- 50
2019-05-30 10:00:00 16.9 4 Sudoeste 9 Sudoeste 0 -- -- 64
2019-05-30 09:00:00 12.8 4 Sudoeste 8 Sudoeste 0 -- -- 75
2019-05-30 08:00:00 10.4 5 Oeste 20 Noroeste 0 -- -- 81
2019-05-30 07:00:00 8.4 13 Norte 19 Norte 0 -- -- 87
2019-05-30 06:00:00 8.4 12 Norte 18 Noroeste 0 -- -- 86
2019-05-30 05:00:00 8.6 14 Norte 18 Noroeste 0 -- -- 88
2019-05-30 04:00:00 8.4 9 Noroeste 14 Oeste 0 -- -- 89
2019-05-30 03:00:00 8.6 0 Calma 16 Noroeste 0 -- -- 86
2019-05-30 02:00:00 9.3 14 Norte 17 Norte 0 -- -- 85
2019-05-30 01:00:00 10.3 6 Noroeste 10 Oeste 0 -- -- 80
2019-05-30 00:00:00 11.3 0 Calma 13 Oeste 0 -- -- 77
2019-05-29 23:00:00 12.3 6 Noroeste 14 Norte 0 -- -- 75
2019-05-29 22:00:00 12.9 7 Noroeste 16 Noroeste 0 -- -- 74
2019-05-29 21:00:00 15 7 Noroeste 24 Noroeste 0 -- -- 67
2019-05-29 20:00:00 17 14 Noroeste 28 Noroeste 0 -- -- 60
2019-05-29 19:00:00 18.6 13 Noroeste 29 Noroeste 0 -- -- 55
2019-05-29 18:00:00 19 13 Noroeste 31 Noroeste 0 -- -- 53
2019-05-29 17:00:00 18.9 12 Noroeste 30 Noroeste 0 -- -- 54
2019-05-29 16:00:00 17.7 15 Noroeste 35 Noroeste 0 -- -- 55
2019-05-29 15:00:00 15.9 13 Noroeste 28 Oeste 0 -- -- 59
2019-05-29 14:00:00 15.4 12 Noroeste 28 Noroeste 0 -- -- 60
2019-05-29 13:00:00 14.8 13 Noroeste 30 Noroeste 0 -- -- 61
2019-05-29 12:00:00 15.1 10 Noroeste 24 Noroeste 0 -- -- 60
2019-05-29 11:00:00 13.7 6 Noroeste 23 Noroeste 0 -- -- 67
2019-05-29 10:00:00 11.9 3 Sur 18 Noroeste 0 -- -- 78
2019-05-29 09:00:00 11.2 4 Noroeste 21 Oeste 0 -- -- 83
2019-05-29 08:00:00 10.4 11 Oeste 26 Oeste 0 -- -- 85
2019-05-29 07:00:00 10 9 Oeste 24 Noroeste 0 -- -- 86
2019-05-29 06:00:00 10.1 11 Oeste 20 Noroeste 0 -- -- 84
2019-05-29 05:00:00 10 7 Oeste 18 Oeste 0 -- -- 87
2019-05-29 04:00:00 10.2 12 Oeste 24 Oeste 0 -- -- 86
2019-05-29 03:00:00 10.2 6 Oeste 21 Noroeste 0 -- -- 77
2019-05-29 02:00:00 10.8 11 Oeste 21 Noroeste 0 -- -- 75
2019-05-29 01:00:00 10.5 9 Oeste 22 Oeste 0 -- -- 75
2019-05-29 00:00:00 10.7 10 Oeste 21 Oeste 0 -- -- 71
2019-05-28 23:00:00 11.1 9 Oeste 28 Noroeste 0 -- -- 69
2019-05-28 22:00:00 12 15 Noroeste 29 Noroeste 0 -- -- 65
2019-05-28 21:00:00 12.9 16 Noroeste 35 Noroeste 0 -- -- 61
2019-05-28 20:00:00 13.7 13 Noroeste 30 Noroeste 0 -- -- 61
2019-05-28 19:00:00 16.1 15 Noroeste 41 Norte 0 -- -- 53
2019-05-28 18:00:00 16.4 14 Noroeste 40 Noroeste 0 -- -- 56
2019-05-28 17:00:00 15.9 20 Noroeste 42 Noroeste 0 -- -- 56
2019-05-28 16:00:00 15.1 24 Noroeste 44 Noroeste 0 -- -- 62
2019-05-28 15:00:00 18.1 16 Noroeste 33 Noroeste 0 -- -- 54
2019-05-28 14:00:00 14.6 12 Noroeste 32 Noroeste 0 -- -- 64
2019-05-28 13:00:00 14.5 14 Noroeste 31 Noroeste 0 -- -- 68
2019-05-28 12:00:00 14.7 15 Noroeste 27 Oeste 0 -- -- 67
2019-05-28 11:00:00 12.3 13 Oeste 26 Noroeste 0 -- -- 72
2019-05-28 10:00:00 11.9 14 Oeste 27 Oeste 0 -- -- 72
2019-05-28 09:00:00 12.6 12 Noroeste 23 Oeste 0 -- -- 67
2019-05-28 08:00:00 10.7 9 Oeste 27 Noroeste 0 -- -- 74
2019-05-28 07:00:00 10.3 15 Noroeste 24 Oeste 0 -- -- 75
2019-05-28 06:00:00 10.5 11 Noroeste 21 Oeste 0 -- -- 74
2019-05-28 05:00:00 9.9 6 Oeste 19 Oeste 0 -- -- 74
2019-05-28 04:00:00 10.4 14 Noroeste 27 Noroeste 0 -- -- 70
2019-05-28 03:00:00 10.4 11 Noroeste 21 Noroeste 0 -- -- 75
2019-05-28 02:00:00 10.7 9 Noroeste 19 Noroeste 0 -- -- 73
2019-05-28 01:00:00 11.4 7 Noroeste 21 Noroeste 0 -- -- 72
2019-05-28 00:00:00 11.7 11 Noroeste 23 Noroeste 0 -- -- 72
2019-05-27 23:00:00 12.6 4 Oeste 44 Noroeste 0 -- -- 70
2019-05-27 22:00:00 13.3 19 Noroeste 37 Noroeste 0 -- -- 70
2019-05-27 21:00:00 14.5 15 Noroeste 46 Norte 0 -- -- 69
2019-05-27 20:00:00 16.5 27 Noroeste 47 Noroeste 0 -- -- 65
2019-05-27 19:00:00 18.8 24 Noroeste 41 Noroeste 0 -- -- 61
2019-05-27 18:00:00 19.7 14 Noroeste 31 Norte 0 -- -- 61
2019-05-27 17:00:00 18.5 10 Norte 27 Noroeste 0 -- -- 64
2019-05-27 16:00:00 18.5 13 Noroeste 25 Noroeste 0 -- -- 64
2019-05-27 15:00:00 18 12 Noroeste 26 Noroeste 0 -- -- 64
2019-05-27 14:00:00 18.3 15 Noroeste 29 Noroeste 0 -- -- 63
2019-05-27 13:00:00 17.5 10 Noroeste 30 Noroeste 0 -- -- 66
2019-05-27 12:00:00 17.1 11 Noroeste 29 Oeste 0 -- -- 67
2019-05-27 11:00:00 15.5 15 Noroeste 29 Noroeste 0 -- -- 68
2019-05-27 10:00:00 14.9 14 Noroeste 24 Noroeste 0 -- -- 70
2019-05-27 09:00:00 13.9 11 Oeste 23 Noroeste 0 -- -- 74
2019-05-27 08:00:00 12.3 11 Oeste 19 Oeste 0 -- -- 81
2019-05-27 07:00:00 11.3 6 Oeste 22 Noroeste 0 -- -- 82
2019-05-27 06:00:00 10.7 9 Noroeste 17 Noroeste 0 -- -- 85
2019-05-27 05:00:00 10.7 5 Oeste 15 Oeste 0 -- -- 83
2019-05-27 04:00:00 11.2 11 Noroeste 21 Noroeste 0 -- -- 83
2019-05-27 03:00:00 10.3 5 Oeste 11 Oeste 0 -- -- 85
2019-05-27 02:00:00 11.4 4 Sudoeste 19 Noroeste 0 -- -- 81
2019-05-27 01:00:00 12 8 Noroeste 19 Norte 0 -- -- 79
2019-05-27 00:00:00 12.8 9 Noroeste 20 Oeste 0 -- -- 79
2019-05-26 23:00:00 13 9 Oeste 21 Noroeste 0 -- -- 76
2019-05-26 22:00:00 13 13 Noroeste 23 Noroeste 0 -- -- 77
2019-05-26 21:00:00 14.2 13 Noroeste 26 Noroeste 0 -- -- 73
2019-05-26 20:00:00 15 10 Noroeste 22 Noroeste 0 -- -- 71
2019-05-26 19:00:00 15.4 12 Noroeste 24 Noroeste 0 -- -- 71
2019-05-26 18:00:00 15.8 12 Noroeste 25 Noroeste 0 -- -- 68
2019-05-26 17:00:00 17.7 15 Noroeste 27 Noroeste 0 -- -- 65
2019-05-26 16:00:00 17.7 15 Noroeste 28 Noroeste 0 -- -- 62
2019-05-26 15:00:00 18 13 Noroeste 28 Noroeste 0 -- -- 65
2019-05-26 14:00:00 16.9 10 Norte 25 Oeste 0 -- -- 64
2019-05-26 13:00:00 15.9 12 Noroeste 26 Noroeste 0 -- -- 65
2019-05-26 12:00:00 15.4 11 Noroeste 22 Oeste 0 -- -- 69
2019-05-26 11:00:00 14.4 9 Oeste 23 Oeste 0 -- -- 71
2019-05-26 10:00:00 13.2 10 Oeste 19 Oeste 0 -- -- 74
2019-05-26 09:00:00 12.1 7 Oeste 15 Oeste 0 -- -- 76
2019-05-26 08:00:00 11.5 5 Oeste 10 Oeste 0 -- -- 77
2019-05-26 07:00:00 11.1 5 Oeste 17 Oeste 0 -- -- 77
2019-05-26 06:00:00 11.1 7 Noroeste 15 Oeste 0 -- -- 77
2019-05-26 05:00:00 11.5 10 Noroeste 21 Noroeste 0 -- -- 74
2019-05-26 04:00:00 11.4 9 Noroeste 15 Noroeste 0 -- -- 73
2019-05-26 03:00:00 11.5 6 Oeste 22 Oeste 0 -- -- 71
2019-05-26 02:00:00 11.5 9 Oeste 15 Noroeste 0 -- -- 72
2019-05-26 01:00:00 11.8 10 Noroeste 22 Oeste 0 -- -- 71
2019-05-26 00:00:00 12 13 Oeste 24 Noroeste 0 -- -- 69
2019-05-25 23:00:00 12.4 14 Noroeste 23 Noroeste 0 -- -- 71
2019-05-25 22:00:00 12.5 12 Noroeste 23 Noroeste 0 -- -- 73
2019-05-25 21:00:00 12.4 14 Noroeste 37 Noroeste 0 -- -- 77
2019-05-25 20:00:00 14.3 17 Noroeste 36 Noroeste 0 -- -- 70
2019-05-25 19:00:00 15.4 15 Noroeste 36 Noroeste 0 -- -- 69
2019-05-25 18:00:00 16.9 17 Noroeste 36 Noroeste 0 -- -- 63
2019-05-25 17:00:00 18.6 19 Noroeste 37 Noroeste 0 -- -- 60
2019-05-25 16:00:00 18.9 20 Noroeste 35 Oeste 0 -- -- 60
2019-05-25 15:00:00 20 18 Noroeste 38 Noroeste 0 -- -- 55
2019-05-25 14:00:00 18 13 Noroeste 29 Noroeste 0 -- -- 57
2019-05-25 13:00:00 16.9 15 Noroeste 32 Noroeste 0 -- -- 61
2019-05-25 12:00:00 16.8 18 Noroeste 30 Noroeste 0 -- -- 61
2019-05-25 11:00:00 14.6 15 Noroeste 29 Noroeste 0 -- -- 70
2019-05-25 10:00:00 14 15 Noroeste 25 Noroeste 0 -- -- 70
2019-05-25 09:00:00 13.2 13 Oeste 20 Oeste 0 -- -- 74
2019-05-25 08:00:00 12 6 Oeste 26 Noroeste 0 -- -- 77
2019-05-25 07:00:00 11.5 14 Noroeste 22 Noroeste 0 -- -- 79
2019-05-25 06:00:00 11.5 9 Oeste 23 Oeste 0 -- -- 78
2019-05-25 05:00:00 12 11 Noroeste 31 Noroeste 0 -- -- 75
2019-05-25 04:00:00 12.4 10 Noroeste 18 Oeste 0 -- -- 73
2019-05-25 03:00:00 12.5 9 Noroeste 19 Noroeste 0 -- -- 73
2019-05-25 02:00:00 12.6 10 Noroeste 23 Oeste 0 -- -- 74
2019-05-25 01:00:00 12.5 11 Noroeste 20 Oeste 0 -- -- 76
2019-05-25 00:00:00 12.7 9 Noroeste 24 Oeste 0 -- -- 75
2019-05-24 23:00:00 12.7 9 Noroeste 23 Oeste 0 -- -- 72
2019-05-24 22:00:00 12.8 10 Noroeste 26 Noroeste 0 -- -- 75
2019-05-24 21:00:00 13.2 12 Noroeste 30 Norte 0 -- -- 75
2019-05-24 20:00:00 14.7 18 Noroeste 37 Norte 0 -- -- 70
2019-05-24 19:00:00 14.8 19 Noroeste 42 Noroeste 0 -- -- 70
2019-05-24 18:00:00 15.1 19 Noroeste 37 Noroeste 0 -- -- 69
2019-05-24 17:00:00 15.8 18 Noroeste 41 Noroeste 0 -- -- 66
2019-05-24 16:00:00 18.6 21 Noroeste 40 Noroeste 0 -- -- 58
2019-05-24 15:00:00 19 18 Noroeste 36 Noroeste 0 -- -- 59
2019-05-24 14:00:00 18.2 24 Noroeste 40 Noroeste 0 -- -- 62
2019-05-24 13:00:00 16 19 Noroeste 36 Noroeste 0 -- -- 66
2019-05-24 12:00:00 15.9 18 Noroeste 34 Noroeste 0 -- -- 70
2019-05-24 11:00:00 13.7 12 Noroeste 32 Noroeste 0 -- -- 77
2019-05-24 10:00:00 12.4 15 Noroeste 30 Noroeste 0 -- -- 82
2019-05-24 09:00:00 12 17 Noroeste 31 Noroeste 0 -- -- 85
2019-05-24 08:00:00 11.4 7 Noroeste 15 Noroeste 0 -- -- 90
2019-05-24 07:00:00 11.1 5 Noroeste 16 Oeste 0.4 -- -- 95
2019-05-24 06:00:00 11.3 3 Oeste 15 Oeste 4.6 -- -- 94
2019-05-24 05:00:00 11.5 6 Oeste 26 Noroeste 4.4 -- -- 92
2019-05-24 04:00:00 11.8 11 Noroeste 25 Noroeste 1 -- -- 89
2019-05-24 03:00:00 12.3 10 Noroeste 26 Noroeste 0.2 -- -- 82
2019-05-24 02:00:00 12.5 10 Noroeste 23 Noroeste 0 -- -- 88
2019-05-24 01:00:00 12.2 10 Noroeste 35 Norte 4.8 -- -- 90
2019-05-24 00:00:00 12.6 11 Noroeste 28 Noroeste 1.8 -- -- 90
2019-05-23 23:00:00 13.4 15 Norte 38 Norte 2.6 -- -- 85
2019-05-23 22:00:00 15.6 18 Norte 33 Norte 0 -- -- 69
2019-05-23 21:00:00 16.8 16 Norte 31 Norte 0 -- -- 68
2019-05-23 20:00:00 20.1 14 Norte 24 Norte 0 -- -- 61
2019-05-23 19:00:00 22.2 10 Nordeste 19 Este 0 -- -- 57
2019-05-23 18:00:00 22.3 6 Este 14 Este 0 -- -- 53
2019-05-23 17:00:00 20.9 5 Sudoeste 17 Sudoeste 0 -- -- 61
2019-05-23 16:00:00 22.5 8 Oeste 19 Sudoeste 0.2 -- -- 58
2019-05-23 15:00:00 24.2 9 Este 18 Sudeste 0 -- -- 40
2019-05-23 14:00:00 23.6 9 Sudeste 18 Este 0 -- -- 43
2019-05-23 13:00:00 22.2 9 Este 17 Sudeste 0 -- -- 49
2019-05-23 12:00:00 21.6 9 Sudeste 17 Sudeste 0 -- -- 51
2019-05-23 11:00:00 19.6 5 Sudeste 11 Sudeste 0 -- -- 58
2019-05-23 10:00:00 15.8 0 Calma 6 Sudeste 0 -- -- 75
2019-05-23 09:00:00 13.9 2 Norte 5 Nordeste 0 -- -- 77
2019-05-23 08:00:00 11.6 0 Calma 8 Norte 0 -- -- 85
2019-05-23 07:00:00 10 8 Norte 15 Noroeste 0 -- -- 89
2019-05-23 06:00:00 10.1 0 Calma 12 Norte 0 -- -- 86
2019-05-23 05:00:00 10.6 0 Calma 12 Norte 0 -- -- 84
2019-05-23 04:00:00 11.1 8 Norte 13 Norte 0 -- -- 84
2019-05-23 03:00:00 11.6 0 Calma 6 Norte 0 -- -- 82
2019-05-23 02:00:00 13.1 0 Calma 12 Norte 0 -- -- 76
2019-05-23 01:00:00 13.5 10 Norte 12 Noroeste 0 -- -- 77
2019-05-23 00:00:00 14.4 3 Nordeste 10 Norte 0 -- -- 75
2019-05-22 23:00:00 15.6 6 Norte 10 Norte 0 -- -- 69
2019-05-22 22:00:00 17.3 7 Nordeste 13 Este 0 -- -- 65
2019-05-22 21:00:00 20.6 8 Este 18 Este 0 -- -- 55
2019-05-22 20:00:00 23.8 7 Noroeste 16 Norte 0 -- -- 30
2019-05-22 19:00:00 25.7 8 Norte 17 Noroeste 0 -- -- 30
2019-05-22 18:00:00 26.6 7 Noroeste 21 Noroeste 0 -- -- 31
2019-05-22 17:00:00 26.1 8 Oeste 19 Oeste 0 -- -- 30
2019-05-22 16:00:00 25.4 7 Norte 17 Norte 0 -- -- 35
2019-05-22 15:00:00 23.8 6 Sudoeste 15 Sudoeste 0 -- -- 39
2019-05-22 14:00:00 22.6 8 Sur 17 Nordeste 0 -- -- 42
2019-05-22 13:00:00 21.1 5 Sudoeste 13 Sudoeste 0 -- -- 45
2019-05-22 12:00:00 19.9 6 Nordeste 13 Sudoeste 0 -- -- 49
2019-05-22 11:00:00 17.9 5 Sudeste 13 Sudeste 0 -- -- 55
2019-05-22 10:00:00 15.5 5 Sur 13 Sudoeste 0 -- -- 66
2019-05-22 09:00:00 11.7 3 Sudoeste 9 Oeste 0 -- -- 78
2019-05-22 08:00:00 9.5 3 Sudoeste 14 Noroeste 0 -- -- 82
2019-05-22 07:00:00 6.9 9 Noroeste 11 Noroeste 0 -- -- 90
2019-05-22 06:00:00 7.2 3 Noroeste 7 Noroeste 0 -- -- 86
2019-05-22 05:00:00 8.8 6 Oeste 15 Oeste 0 -- -- 82
2019-05-22 04:00:00 9.1 7 Oeste 14 Oeste 0 -- -- 81
2019-05-22 03:00:00 7.8 5 Noroeste 15 Norte 0 -- -- 80
2019-05-22 02:00:00 7.6 6 Norte 10 Norte 0 -- -- 78
2019-05-22 01:00:00 8.7 2 Sur 12 Noroeste 0 -- -- 69
2019-05-22 00:00:00 11.1 2 Norte 13 Norte 0 -- -- 64
2019-05-21 23:00:00 11.5 4 Este 13 Norte 0 -- -- 62
2019-05-21 22:00:00 13.4 5 Noroeste 17 Norte 0 -- -- 53
2019-05-21 21:00:00 16.1 8 Norte 20 Noroeste 0 -- -- 41
2019-05-21 20:00:00 18.4 10 Nordeste 27 Norte 0 -- -- 37
2019-05-21 19:00:00 20.1 14 Norte 28 Nordeste 0 -- -- 36
2019-05-21 18:00:00 21.5 15 Norte 29 Nordeste 0 -- -- 36
2019-05-21 17:00:00 22.4 13 Nordeste 29 Nordeste 0 -- -- 31
2019-05-21 16:00:00 22.9 12 Norte 28 Norte 0 -- -- 31
2019-05-21 15:00:00 22.5 10 Norte 22 Norte 0 -- -- 33
2019-05-21 14:00:00 21.6 9 Oeste 20 Oeste 0 -- -- 38
2019-05-21 13:00:00 19.4 7 Nordeste 15 Oeste 0 -- -- 44
2019-05-21 12:00:00 18.2 7 Sudoeste 14 Sur 0 -- -- 50
2019-05-21 11:00:00 16.2 7 Sudoeste 15 Oeste 0 -- -- 55
2019-05-21 10:00:00 14.1 5 Oeste 11 Noroeste 0 -- -- 64
2019-05-21 09:00:00 10.9 6 Oeste 14 Noroeste 0 -- -- 74
2019-05-21 08:00:00 7.1 9 Noroeste 21 Noroeste 0 -- -- 87
2019-05-21 07:00:00 4.7 12 Noroeste 16 Noroeste 0 -- -- 92
2019-05-21 06:00:00 5 5 Norte 10 Norte 0 -- -- 88
2019-05-21 05:00:00 5.8 2 Este 15 Noroeste 0 -- -- 87
2019-05-21 04:00:00 6.3 12 Noroeste 14 Noroeste 0 -- -- 89
2019-05-21 03:00:00 6.4 10 Noroeste 13 Noroeste 0 -- -- 87
2019-05-21 02:00:00 7.5 7 Norte 11 Norte 0 -- -- 83
2019-05-21 01:00:00 8 6 Noroeste 12 Nordeste 0 -- -- 80
2019-05-21 00:00:00 9.5 6 Nordeste 14 Norte 0 -- -- 74
2019-05-20 23:00:00 11.1 11 Norte 21 Norte 0 -- -- 71
2019-05-20 22:00:00 -- 7 Norte 27 Norte 0 -- -- --
2019-05-20 21:00:00 14.7 14 Norte 26 Norte 0 -- -- 58
2019-05-20 20:00:00 16.3 11 Norte 23 Norte 0 -- -- 51
2019-05-20 19:00:00 17.7 12 Nordeste 25 Este 0 -- -- 48
2019-05-20 18:00:00 18.1 11 Nordeste 23 Nordeste 0 -- -- 46
2019-05-20 17:00:00 19.6 11 Nordeste 24 Este 0 -- -- 43
2019-05-20 16:00:00 19.3 10 Nordeste 23 Este 0 -- -- 43
2019-05-20 15:00:00 19.1 10 Nordeste 22 Noroeste 0 -- -- 42
2019-05-20 14:00:00 18.5 8 Norte 21 Noroeste 0 -- -- 43
2019-05-20 13:00:00 17.9 9 Noroeste 22 Noroeste 0 -- -- 46
2019-05-20 12:00:00 14.8 5 Noroeste 18 Noroeste 0 -- -- 55
2019-05-20 11:00:00 13.8 6 Oeste 17 Norte 0 -- -- 60
2019-05-20 10:00:00 12.6 4 Norte 12 Oeste 0 -- -- 61
2019-05-20 09:00:00 10.1 2 Sudoeste 5 Sur 0 -- -- 70
2019-05-20 08:00:00 6.8 0 Calma 10 Norte 0 -- -- 87
2019-05-20 07:00:00 4.5 2 Norte 13 Noroeste 0 -- -- 90
2019-05-20 06:00:00 4.4 4 Noroeste 9 Noroeste 0 -- -- 90
2019-05-20 05:00:00 4.7 0 Calma 12 Noroeste 0 -- -- 89
2019-05-20 04:00:00 5.4 6 Noroeste 12 Noroeste 0 -- -- 88
2019-05-20 03:00:00 6.1 4 Noroeste 13 Noroeste 0 -- -- 84
2019-05-20 02:00:00 6.6 4 Norte 13 Norte 0 -- -- 83
2019-05-20 01:00:00 7.3 8 Norte 15 Norte 0 -- -- 82
2019-05-20 00:00:00 8.4 2 Noroeste 21 Noroeste 0 -- -- 77
2019-05-19 23:00:00 9.3 8 Noroeste 24 Noroeste 0 -- -- 77
2019-05-19 22:00:00 10.1 17 Noroeste 30 Norte 0 -- -- 77
2019-05-19 21:00:00 11 10 Noroeste 33 Noroeste 0 -- -- 71
2019-05-19 20:00:00 12.9 18 Noroeste 33 Noroeste 0 -- -- 63
2019-05-19 19:00:00 12.8 17 Noroeste 35 Noroeste 0 -- -- 67
2019-05-19 18:00:00 12.6 16 Noroeste 35 Noroeste 0 -- -- 69
2019-05-19 17:00:00 13.2 19 Noroeste 41 Noroeste 0 -- -- 65
2019-05-19 16:00:00 14.8 16 Noroeste 39 Oeste 0 -- -- 61
2019-05-19 15:00:00 13.8 19 Noroeste 36 Noroeste 0 -- -- 64
2019-05-19 14:00:00 12.3 18 Noroeste 31 Oeste 0 -- -- 69
2019-05-19 13:00:00 13.1 19 Oeste 47 Noroeste 0 -- -- 67
2019-05-19 12:00:00 12 16 Noroeste 36 Noroeste 0 -- -- 69
2019-05-19 11:00:00 11.1 14 Oeste 28 Oeste 0 -- -- 71
2019-05-19 10:00:00 11 12 Oeste 34 Noroeste 0 -- -- 73
2019-05-19 09:00:00 9.9 20 Oeste 35 Noroeste 0 -- -- 77
2019-05-19 08:00:00 9.4 13 Oeste 27 Oeste 0 -- -- 80
2019-05-19 07:00:00 9.3 11 Oeste 27 Oeste 0 -- -- 79
2019-05-19 06:00:00 9.2 12 Oeste 28 Oeste 0 -- -- 80
2019-05-19 05:00:00 9.2 13 Oeste 30 Oeste 0 -- -- 78
2019-05-19 04:00:00 9.1 18 Oeste 33 Oeste 0 -- -- 77
2019-05-19 03:00:00 9 11 Oeste 30 Noroeste 0 -- -- 77
2019-05-19 02:00:00 9 14 Noroeste 28 Noroeste 0 -- -- 78
2019-05-19 01:00:00 9.1 12 Oeste 23 Oeste 0 -- -- 78
2019-05-19 00:00:00 8.9 10 Oeste 19 Noroeste 0 -- -- 79
2019-05-18 23:00:00 8.4 5 Oeste 12 Noroeste 0.2 -- -- 89
2019-05-18 22:00:00 8.5 5 Oeste 19 Noroeste 0 -- -- 88
2019-05-18 21:00:00 9.2 15 Noroeste 30 Noroeste 0.2 -- -- 82
2019-05-18 20:00:00 10.8 15 Noroeste 28 Noroeste 0 -- -- 71
2019-05-18 19:00:00 12.3 12 Noroeste 26 Noroeste 0 -- -- 65
2019-05-18 18:00:00 12.9 16 Oeste 35 Noroeste 0 -- -- 64
2019-05-18 17:00:00 14.2 15 Noroeste 36 Noroeste 0 -- -- 60
2019-05-18 16:00:00 15.7 21 Noroeste 41 Noroeste 0 -- -- 56
2019-05-18 15:00:00 14 22 Noroeste 46 Oeste 0 -- -- 60
2019-05-18 14:00:00 13 18 Oeste 31 Noroeste 0 -- -- 63
2019-05-18 13:00:00 11.8 20 Oeste 42 Oeste 0 -- -- 67
2019-05-18 12:00:00 11.5 11 Oeste 28 Noroeste 0 -- -- 63
2019-05-18 11:00:00 11.4 10 Oeste 25 Oeste 0 -- -- 62
2019-05-18 10:00:00 11.3 7 Oeste 19 Oeste 0 -- -- 62
2019-05-18 09:00:00 10 12 Noroeste 22 Noroeste 0 -- -- 65
2019-05-18 08:00:00 7.2 8 Oeste 20 Oeste 0 -- -- 75
2019-05-18 07:00:00 4.5 6 Norte 13 Noroeste 0 -- -- 87
2019-05-18 06:00:00 6 5 Noroeste 11 Noroeste 0 -- -- 84
2019-05-18 05:00:00 6.7 8 Norte 13 Noroeste 0 -- -- 85
2019-05-18 04:00:00 6.9 6 Noroeste 15 Oeste 0 -- -- 85
2019-05-18 03:00:00 7 9 Oeste 15 Noroeste 0 -- -- 82
2019-05-18 02:00:00 7.9 9 Oeste 15 Oeste 0 -- -- 79
2019-05-18 01:00:00 8.1 5 Oeste 19 Oeste 0 -- -- 76
2019-05-18 00:00:00 7.9 9 Oeste 25 Noroeste 0 -- -- 77
2019-05-17 23:00:00 9 12 Oeste 30 Noroeste 0 -- -- 75
2019-05-17 22:00:00 9.5 21 Noroeste 35 Noroeste 0.2 -- -- 74
2019-05-17 21:00:00 10.3 18 Noroeste 37 Noroeste 0 -- -- 75
2019-05-17 20:00:00 11.3 16 Noroeste 30 Noroeste 0 -- -- 71
2019-05-17 19:00:00 11.3 17 Noroeste 31 Noroeste 0 -- -- 74
2019-05-17 18:00:00 10.2 12 Noroeste 24 Noroeste 0 -- -- 81
2019-05-17 17:00:00 10.8 10 Noroeste 28 Oeste 0 -- -- 78
2019-05-17 16:00:00 11 14 Oeste 35 Oeste 0.2 -- -- 79
2019-05-17 15:00:00 10.7 14 Noroeste 36 Noroeste 0 -- -- 79
2019-05-17 14:00:00 11.1 17 Noroeste 37 Oeste 0 -- -- 76
2019-05-17 13:00:00 12.4 19 Noroeste 46 Noroeste 0 -- -- 74
2019-05-17 12:00:00 11.3 19 Noroeste 50 Noroeste 0 -- -- 79
2019-05-17 11:00:00 11.1 23 Noroeste 42 Oeste 0 -- -- 81
2019-05-17 10:00:00 10 13 Oeste 28 Oeste 0 -- -- 89
2019-05-17 09:00:00 9.5 15 Oeste 32 Oeste 0 -- -- 88
2019-05-17 08:00:00 9.1 10 Oeste 24 Oeste 0 -- -- 91
2019-05-17 07:00:00 8.6 11 Oeste 21 Noroeste 0 -- -- 92
2019-05-17 06:00:00 8.4 8 Oeste 35 Noroeste 0.4 -- -- 93
2019-05-17 05:00:00 8.6 14 Oeste 27 Noroeste 3.4 -- -- 92
2019-05-17 04:00:00 8.4 9 Noroeste 18 Oeste 6.6 -- -- 94
2019-05-17 03:00:00 8.8 6 Oeste 46 Oeste 4 -- -- 91
2019-05-17 02:00:00 8.6 28 Noroeste 50 Noroeste 3.6 -- -- 89
2019-05-17 01:00:00 10 27 Noroeste 44 Noroeste 1.2 -- -- 84
2019-05-17 00:00:00 11.7 15 Noroeste 26 Norte 0.6 -- -- 86